createdAt,value
2022-12-09T00:01:17.225Z,62.85
2022-12-09T00:03:44.703Z,64.63
2022-12-09T00:06:26.105Z,64.60
2022-12-09T00:08:54.147Z,64.57
2022-12-09T00:11:21.941Z,63.70
2022-12-09T00:13:54.763Z,61.10
2022-12-09T00:16:22.592Z,70.10
2022-12-09T00:18:50.057Z,61.60
2022-12-09T00:21:20.449Z,69.57
2022-12-09T00:23:48.175Z,65.93
2022-12-09T00:26:16.408Z,63.28
2022-12-09T00:28:43.722Z,69.53
2022-12-09T00:31:14.264Z,67.07
2022-12-09T00:33:41.328Z,69.80
2022-12-09T00:36:11.703Z,65.93
2022-12-09T00:38:38.656Z,67.82
2022-12-09T00:41:06.064Z,67.22
2022-12-09T00:43:33.640Z,72.03
2022-12-09T00:46:01.402Z,67.82
2022-12-09T00:48:28.804Z,68.65
2022-12-09T00:50:55.884Z,70.18
2022-12-09T00:53:22.939Z,65.90
2022-12-09T00:55:49.784Z,66.57
2022-12-09T00:58:17.090Z,65.18
2022-12-09T01:00:44.246Z,64.72
2022-12-09T01:03:16.177Z,61.95
2022-12-09T01:05:43.674Z,62.33
2022-12-09T01:08:12.345Z,71.18
2022-12-09T01:10:40.435Z,69.03
2022-12-09T01:13:07.688Z,61.88
2022-12-09T01:15:34.942Z,65.05
2022-12-09T01:18:01.862Z,61.30
2022-12-09T01:20:29.115Z,66.65
2022-12-09T01:22:56.170Z,66.22
2022-12-09T01:25:23.031Z,64.00
2022-12-09T01:27:50.234Z,62.83
2022-12-09T01:30:17.255Z,65.03
2022-12-09T01:32:44.690Z,64.53
2022-12-09T01:35:11.735Z,66.68
2022-12-09T01:37:38.515Z,62.70
2022-12-09T01:40:08.590Z,70.22
2022-12-09T01:42:35.704Z,72.13
2022-12-09T01:45:23.668Z,73.50
2022-12-09T01:48:03.701Z,73.00
2022-12-09T01:50:32.596Z,67.07
2022-12-09T01:52:59.876Z,62.35
2022-12-09T01:55:27.274Z,61.35
2022-12-09T01:57:54.650Z,61.05
2022-12-09T02:00:21.654Z,61.15
2022-12-09T02:02:50.012Z,63.67
2022-12-09T02:05:18.896Z,59.33
2022-12-09T02:07:45.737Z,61.00
2022-12-09T02:10:17.439Z,57.90
2022-12-09T02:13:07.885Z,64.80
2022-12-09T02:15:45.436Z,61.03
2022-12-09T02:18:31.428Z,56.42
2022-12-09T02:23:43.589Z,57.80
2022-12-09T02:26:49.191Z,54.15
2022-12-09T02:29:33.943Z,62.85
2022-12-09T02:32:03.842Z,58.38
2022-12-09T02:34:34.176Z,60.35
2022-12-09T02:37:10.757Z,60.88
2022-12-09T02:40:00.785Z,61.05
2022-12-09T02:42:31.794Z,62.83
2022-12-09T02:45:01.243Z,61.88
2022-12-09T02:47:31.590Z,63.92
2022-12-09T02:50:06.391Z,66.15
2022-12-09T02:52:35.613Z,65.60
2022-12-09T02:55:07.666Z,60.50
2022-12-09T02:57:36.046Z,57.28
2022-12-09T03:00:06.708Z,59.55
2022-12-09T03:02:39.687Z,66.75
2022-12-09T03:05:27.955Z,68.72
2022-12-09T03:08:29.279Z,67.53
2022-12-09T03:11:12.759Z,63.45
2022-12-09T03:14:02.961Z,58.35
2022-12-09T03:16:52.345Z,60.90
2022-12-09T03:19:22.166Z,59.53
2022-12-09T03:21:52.358Z,64.07
2022-12-09T03:24:24.287Z,70.60
2022-12-09T03:26:51.650Z,58.50
2022-12-09T03:29:25.556Z,71.65
2022-12-09T03:31:54.990Z,66.43
2022-12-09T03:34:25.750Z,59.97
2022-12-09T03:36:53.939Z,62.17
2022-12-09T03:39:27.326Z,63.05
2022-12-09T03:41:58.385Z,64.07
2022-12-09T03:44:40.180Z,65.15
2022-12-09T03:47:08.540Z,63.95
2022-12-09T03:49:37.775Z,71.82
2022-12-09T03:52:20.105Z,68.55
2022-12-09T03:54:50.811Z,67.07
2022-12-09T03:57:19.928Z,69.88
2022-12-09T03:59:59.362Z,64.60
2022-12-09T04:02:26.806Z,61.08
2022-12-09T04:04:54.302Z,63.08
2022-12-09T04:07:21.482Z,66.40
2022-12-09T04:09:48.288Z,66.78
2022-12-09T04:12:15.173Z,70.13
2022-12-09T04:14:42.137Z,68.32
2022-12-09T04:17:10.330Z,65.97
2022-12-09T04:19:37.514Z,64.32
2022-12-09T04:22:04.956Z,63.92
2022-12-09T04:24:31.723Z,64.22
2022-12-09T04:26:58.677Z,62.47
2022-12-09T04:29:25.911Z,60.67
2022-12-09T04:31:53.163Z,57.80
2022-12-09T04:34:19.969Z,62.03
2022-12-09T04:36:47.952Z,59.10
2022-12-09T04:39:15.081Z,56.72
2022-12-09T04:41:41.999Z,59.40
2022-12-09T04:44:09.190Z,64.22
2022-12-09T04:46:36.154Z,64.03
2022-12-09T04:49:03.909Z,56.70
2022-12-09T04:51:37.568Z,59.88
2022-12-09T04:54:06.957Z,56.45
2022-12-09T04:56:33.933Z,62.67
2022-12-09T04:59:00.691Z,65.93
2022-12-09T05:01:31.263Z,62.83
2022-12-09T05:03:59.500Z,63.25
2022-12-09T05:06:26.791Z,64.65
2022-12-09T05:08:54.072Z,70.50
2022-12-09T05:11:21.727Z,63.90
2022-12-09T05:13:48.724Z,65.18
2022-12-09T05:16:17.682Z,58.50
2022-12-09T05:18:46.682Z,58.67
2022-12-09T05:21:17.221Z,62.22
2022-12-09T05:23:44.559Z,68.53
2022-12-09T05:26:14.576Z,59.10
2022-12-09T05:28:42.266Z,56.35
2022-12-09T05:31:19.876Z,58.58
2022-12-09T05:33:47.839Z,54.42
2022-12-09T05:36:17.184Z,59.35
2022-12-09T05:38:44.687Z,54.33
2022-12-09T05:41:12.111Z,59.83
2022-12-09T05:43:39.567Z,54.22
2022-12-09T05:46:07.729Z,50.75
2022-12-09T05:48:35.369Z,56.25
2022-12-09T05:51:09.275Z,50.63
2022-12-09T05:53:36.741Z,54.70
2022-12-09T05:56:03.929Z,49.67
2022-12-09T05:58:30.909Z,51.92
2022-12-09T06:01:04.300Z,46.88
2022-12-09T06:03:31.597Z,52.78
2022-12-09T06:05:59.150Z,48.42
2022-12-09T06:08:26.387Z,51.50
2022-12-09T06:10:53.809Z,49.33
2022-12-09T06:13:21.052Z,52.78
2022-12-09T06:15:47.896Z,50.70
2022-12-09T06:18:15.228Z,52.28
2022-12-09T06:20:42.431Z,47.70
2022-12-09T06:23:09.674Z,46.15
2022-12-09T06:25:36.966Z,45.47
2022-12-09T06:28:04.691Z,39.95
2022-12-09T06:30:31.956Z,40.05
2022-12-09T06:32:59.966Z,39.85
2022-12-09T06:35:26.902Z,39.63
2022-12-09T06:37:54.151Z,36.03
2022-12-09T06:40:22.880Z,36.47
2022-12-09T06:42:51.169Z,33.42
2022-12-09T06:45:19.952Z,37.72
2022-12-09T06:47:47.809Z,37.30
2022-12-09T06:50:15.546Z,35.67
2022-12-09T06:52:42.884Z,36.67
2022-12-09T06:55:11.220Z,32.05
2022-12-09T06:57:38.323Z,30.38
2022-12-09T07:00:06.492Z,27.52
2022-12-09T07:02:36.763Z,26.77
2022-12-09T07:05:04.600Z,29.48
2022-12-09T07:07:32.540Z,28.52
2022-12-09T07:10:02.037Z,21.23
2022-12-09T07:12:29.126Z,23.73
2022-12-09T07:14:56.043Z,21.85
2022-12-09T07:17:23.931Z,20.00
2022-12-09T07:19:50.756Z,18.60
2022-12-09T07:22:17.975Z,18.35
2022-12-09T07:24:45.291Z,17.20
2022-12-09T07:27:19.253Z,15.95
2022-12-09T07:29:47.203Z,11.95
2022-12-09T07:32:14.664Z,13.27
2022-12-09T07:34:42.104Z,13.23
2022-12-09T07:37:09.249Z,12.90
2022-12-09T07:39:36.171Z,11.85
2022-12-09T07:42:03.777Z,14.45
2022-12-09T07:44:31.120Z,13.77
2022-12-09T07:46:58.450Z,12.55
2022-12-09T07:49:25.862Z,17.02
2022-12-09T07:51:52.864Z,12.98
2022-12-09T07:54:20.527Z,9.88
2022-12-09T07:56:47.873Z,10.93
2022-12-09T07:59:16.192Z,12.30
2022-12-09T08:01:43.757Z,9.40
2022-12-09T08:04:11.213Z,10.50
2022-12-09T08:06:39.119Z,9.48
2022-12-09T08:09:10.346Z,12.25
2022-12-09T08:11:37.855Z,9.40
2022-12-09T08:14:11.386Z,10.27
2022-12-09T08:16:41.146Z,11.45
2022-12-09T08:19:09.158Z,10.32
2022-12-09T08:21:36.770Z,13.32
2022-12-09T08:24:06.101Z,11.40
2022-12-09T08:26:35.167Z,12.68
2022-12-09T08:29:02.148Z,10.48
2022-12-09T08:31:30.336Z,13.10
2022-12-09T08:33:58.613Z,14.32
2022-12-09T08:36:28.433Z,15.07
2022-12-09T08:38:58.077Z,14.65
2022-12-09T08:41:38.643Z,14.63
2022-12-09T08:44:08.839Z,14.90
2022-12-09T08:46:37.510Z,14.27
2022-12-09T08:49:05.519Z,13.15
2022-12-09T08:51:33.209Z,16.75
2022-12-09T08:54:01.488Z,16.95
2022-12-09T08:56:29.168Z,14.88
2022-12-09T08:58:56.593Z,16.70
2022-12-09T09:01:32.247Z,16.80
2022-12-09T09:04:07.922Z,19.13
2022-12-09T09:06:36.547Z,18.42
2022-12-09T09:09:05.143Z,17.98
2022-12-09T09:11:32.629Z,18.13
2022-12-09T09:14:00.385Z,18.05
2022-12-09T09:16:27.598Z,19.45
2022-12-09T09:18:55.383Z,19.48
2022-12-09T09:21:26.954Z,18.15
2022-12-09T09:23:54.755Z,19.55
2022-12-09T09:26:25.963Z,20.80
2022-12-09T09:28:53.809Z,21.23
2022-12-09T09:31:23.095Z,20.40
2022-12-09T09:33:50.957Z,22.13
2022-12-09T09:36:21.880Z,21.35
2022-12-09T09:38:50.828Z,19.42
2022-12-09T09:41:30.715Z,20.92
2022-12-09T09:43:58.261Z,20.10
2022-12-09T09:46:44.467Z,20.77
2022-12-09T09:49:37.591Z,22.98
2022-12-09T09:52:08.956Z,20.25
2022-12-09T09:54:36.445Z,22.45
2022-12-09T09:57:15.132Z,21.95
2022-12-09T09:59:45.467Z,24.35
2022-12-09T10:02:19.395Z,23.27
2022-12-09T10:04:52.703Z,25.17
2022-12-09T10:07:31.340Z,26.10
2022-12-09T10:10:26.016Z,27.55
2022-12-09T10:13:18.727Z,27.02
2022-12-09T10:16:00.013Z,27.08
2022-12-09T10:19:04.065Z,24.42
2022-12-09T10:21:40.257Z,23.92
2022-12-09T10:24:37.361Z,21.10
2022-12-09T10:27:16.599Z,25.25
2022-12-09T10:29:57.840Z,21.58
2022-12-09T10:32:32.753Z,23.42
2022-12-09T10:35:00.575Z,20.73
2022-12-09T10:37:33.913Z,21.63
2022-12-09T10:40:11.006Z,19.98
2022-12-09T10:43:13.747Z,16.65
2022-12-09T10:48:48.538Z,19.25
2022-12-09T10:51:21.645Z,17.15
2022-12-09T10:53:56.079Z,18.05
2022-12-09T10:56:31.097Z,19.27
2022-12-09T10:59:25.062Z,17.15
2022-12-09T11:02:22.959Z,18.35
2022-12-09T11:04:50.457Z,16.83
2022-12-09T11:07:22.912Z,15.82
2022-12-09T11:10:00.768Z,12.75
2022-12-09T11:12:30.865Z,12.55
2022-12-09T11:15:41.300Z,12.98
2022-12-09T11:18:21.319Z,13.88
2022-12-09T11:21:00.957Z,12.80
2022-12-09T11:23:29.040Z,15.43
2022-12-09T11:25:59.406Z,14.63
2022-12-09T11:28:30.518Z,15.07
2022-12-09T11:33:59.296Z,16.60
2022-12-09T11:36:34.279Z,15.82
2022-12-09T11:39:37.645Z,18.35
2022-12-09T11:42:23.089Z,14.95
2022-12-09T11:44:58.880Z,15.73
2022-12-09T11:50:32.401Z,14.23
2022-12-09T11:53:11.391Z,16.45
2022-12-09T11:55:43.702Z,16.33
2022-12-09T11:58:42.832Z,19.77
2022-12-09T12:01:23.530Z,20.05
2022-12-09T12:03:58.774Z,18.38
2022-12-09T12:06:47.868Z,16.52
2022-12-09T12:09:17.718Z,16.77
2022-12-09T12:12:16.866Z,19.10
2022-12-09T12:14:44.004Z,18.35
2022-12-09T12:17:16.588Z,17.90
2022-12-09T12:19:47.270Z,17.50
2022-12-09T12:22:22.918Z,18.17
2022-12-09T12:27:31.030Z,17.00
2022-12-09T12:30:12.891Z,17.63
2022-12-09T12:36:04.580Z,17.20
2022-12-09T12:38:40.080Z,18.90
2022-12-09T12:41:43.094Z,16.17
2022-12-09T12:45:09.295Z,15.55
2022-12-09T12:47:48.330Z,14.32
2022-12-09T12:50:23.991Z,12.85
2022-12-09T12:55:58.364Z,13.73
2022-12-09T12:58:39.830Z,11.88
2022-12-09T13:01:10.122Z,17.58
2022-12-09T13:03:53.407Z,15.50
2022-12-09T13:06:24.010Z,14.27
2022-12-09T13:09:03.384Z,13.00
2022-12-09T13:11:39.498Z,13.48
2022-12-09T13:14:18.827Z,13.15
2022-12-09T13:16:46.478Z,13.52
2022-12-09T13:19:19.110Z,12.52
2022-12-09T13:21:46.601Z,14.73
2022-12-09T13:24:42.552Z,13.38
2022-12-09T13:27:54.104Z,14.55
2022-12-09T13:30:26.776Z,13.52
2022-12-09T13:33:14.534Z,12.38
2022-12-09T13:35:48.107Z,13.85
2022-12-09T13:38:25.978Z,13.65
2022-12-09T13:40:52.833Z,17.42
2022-12-09T13:43:28.565Z,14.50
2022-12-09T13:46:01.382Z,14.45
2022-12-09T13:48:39.641Z,14.27
2022-12-09T13:51:06.922Z,14.98
2022-12-09T13:53:45.526Z,13.43
2022-12-09T13:56:24.026Z,12.95
2022-12-09T13:59:12.195Z,17.67
2022-12-09T14:01:49.865Z,13.68
2022-12-09T14:04:27.926Z,13.40
2022-12-09T14:06:57.207Z,12.15
2022-12-09T14:09:32.297Z,12.77
2022-12-09T14:12:00.910Z,12.43
2022-12-09T14:14:27.592Z,12.38
2022-12-09T14:17:02.145Z,15.35
2022-12-09T14:19:33.786Z,17.83
2022-12-09T14:22:22.104Z,16.33
2022-12-09T14:24:57.377Z,17.92
2022-12-09T14:27:30.142Z,16.23
2022-12-09T14:29:59.837Z,19.27
2022-12-09T14:32:26.546Z,20.25
2022-12-09T14:35:20.226Z,20.98
2022-12-09T14:37:55.492Z,19.67
2022-12-09T14:40:33.096Z,18.65
2022-12-09T14:43:29.358Z,19.92
2022-12-09T14:46:02.098Z,21.10
2022-12-09T14:48:35.111Z,22.60
2022-12-09T14:51:28.052Z,22.58
2022-12-09T14:54:01.571Z,20.23
2022-12-09T14:56:30.254Z,22.85
2022-12-09T14:59:16.234Z,26.90
2022-12-09T15:04:44.776Z,19.30
2022-12-09T15:07:21.677Z,20.83
2022-12-09T15:09:53.150Z,21.10
2022-12-09T15:12:34.822Z,20.75
2022-12-09T15:15:10.712Z,29.13
2022-12-09T15:17:53.985Z,22.15
2022-12-09T15:20:22.999Z,20.90
2022-12-09T15:22:56.411Z,20.05
2022-12-09T15:25:24.593Z,22.67
2022-12-09T15:28:04.831Z,20.52
2022-12-09T15:30:37.756Z,22.08
2022-12-09T15:33:17.628Z,23.05
2022-12-09T15:36:23.783Z,22.73
2022-12-09T15:39:07.378Z,24.80
2022-12-09T15:41:59.046Z,23.48
2022-12-09T15:44:27.867Z,24.73
2022-12-09T15:46:57.483Z,21.17
2022-12-09T15:49:30.036Z,22.17
2022-12-09T15:51:57.204Z,22.95
2022-12-09T15:54:34.058Z,25.77
2022-12-09T15:57:03.862Z,25.27
2022-12-09T15:59:38.846Z,20.95
2022-12-09T16:02:07.657Z,21.48
2022-12-09T16:04:44.346Z,23.45
2022-12-09T16:07:15.422Z,22.73
2022-12-09T16:09:59.341Z,22.10
2022-12-09T16:12:28.276Z,22.25
2022-12-09T16:14:55.467Z,21.15
2022-12-09T16:17:25.162Z,21.48
2022-12-09T16:19:51.930Z,23.02
2022-12-09T16:22:28.967Z,22.92
2022-12-09T16:25:27.130Z,21.65
2022-12-09T16:28:03.263Z,27.63
2022-12-09T16:30:32.375Z,30.08
2022-12-09T16:33:01.706Z,25.38
2022-12-09T16:35:33.557Z,27.20
2022-12-09T16:38:14.935Z,31.45
2022-12-09T16:40:44.754Z,36.55
2022-12-09T16:43:20.734Z,34.45
2022-12-09T16:45:56.123Z,36.92
2022-12-09T16:48:24.600Z,34.05
2022-12-09T16:51:13.496Z,34.40
2022-12-09T16:53:45.634Z,30.25
2022-12-09T16:56:32.485Z,38.15
2022-12-09T16:58:59.766Z,33.55
2022-12-09T17:01:31.879Z,32.58
2022-12-09T17:04:04.220Z,34.05
2022-12-09T17:06:31.332Z,33.75
2022-12-09T17:08:58.110Z,30.55
2022-12-09T17:11:24.900Z,33.38
2022-12-09T17:13:51.864Z,34.40
2022-12-09T17:16:22.052Z,34.67
2022-12-09T17:18:49.630Z,31.48
2022-12-09T17:21:16.773Z,32.42
2022-12-09T17:23:44.148Z,31.23
2022-12-09T17:26:13.914Z,34.42
2022-12-09T17:28:43.878Z,30.88
2022-12-09T17:31:22.364Z,30.30
2022-12-09T17:33:49.361Z,29.63
2022-12-09T17:36:17.656Z,31.33
2022-12-09T17:38:44.639Z,35.25
2022-12-09T17:41:15.791Z,31.77
2022-12-09T17:43:43.240Z,30.38
2022-12-09T17:46:11.422Z,31.08
2022-12-09T17:48:40.132Z,30.92
2022-12-09T17:51:09.079Z,33.25
2022-12-09T17:53:38.008Z,30.30
2022-12-09T17:56:06.969Z,27.60
2022-12-09T17:58:33.746Z,26.40
2022-12-09T18:01:00.767Z,27.00
2022-12-09T18:03:54.503Z,28.27
2022-12-09T18:06:15.675Z,27.92
2022-12-09T18:08:42.468Z,27.90
2022-12-09T18:11:10.945Z,23.83
2022-12-09T18:13:38.731Z,26.85
2022-12-09T18:16:09.889Z,23.33
2022-12-09T18:18:38.023Z,24.13
2022-12-09T18:21:08.216Z,23.75
2022-12-09T18:23:37.960Z,24.65
2022-12-09T18:26:14.020Z,23.52
2022-12-09T18:28:41.420Z,25.88
2022-12-09T18:31:16.133Z,24.17
2022-12-09T18:33:43.281Z,23.53
2022-12-09T18:36:13.139Z,23.63
2022-12-09T18:38:41.503Z,25.67
2022-12-09T18:41:17.623Z,25.10
2022-12-09T18:43:45.849Z,24.20
2022-12-09T18:46:25.489Z,22.83
2022-12-09T18:48:57.698Z,22.40
2022-12-09T18:51:25.525Z,23.23
2022-12-09T18:53:52.567Z,22.00
2022-12-09T18:56:19.738Z,21.65
2022-12-09T19:01:34.229Z,21.33
2022-12-09T19:04:03.377Z,23.92
2022-12-09T19:06:36.038Z,22.00
2022-12-09T19:09:06.040Z,23.50
2022-12-09T19:11:34.776Z,23.55
2022-12-09T19:14:02.163Z,24.30
2022-12-09T19:16:29.450Z,24.95
2022-12-09T19:18:57.325Z,23.30
2022-12-09T19:21:26.002Z,21.35
2022-12-09T19:23:54.819Z,24.58
2022-12-09T19:26:28.831Z,23.17
2022-12-09T19:28:57.852Z,23.88
2022-12-09T19:31:29.033Z,21.65
2022-12-09T19:33:57.293Z,24.15
2022-12-09T19:36:25.292Z,23.02
2022-12-09T19:38:52.599Z,25.88
2022-12-09T19:41:19.882Z,25.23
2022-12-09T19:43:47.271Z,24.58
2022-12-09T19:46:15.573Z,24.33
2022-12-09T19:48:47.040Z,26.75
2022-12-09T19:51:16.418Z,25.25
2022-12-09T19:53:43.617Z,27.20
2022-12-09T19:56:19.456Z,25.75
2022-12-09T19:58:47.265Z,25.02
2022-12-09T20:01:20.468Z,23.95
2022-12-09T20:03:49.914Z,26.27
2022-12-09T20:06:18.620Z,26.08
2022-12-09T20:08:45.894Z,26.83
2022-12-09T20:11:15.503Z,28.65
2022-12-09T20:13:42.860Z,29.77
2022-12-09T20:16:12.416Z,29.90
2022-12-09T20:18:39.610Z,29.25
2022-12-09T20:21:09.557Z,30.38
2022-12-09T20:23:38.521Z,30.88
2022-12-09T20:26:06.595Z,27.02
2022-12-09T20:28:34.346Z,30.35
2022-12-09T20:31:14.258Z,28.23
2022-12-09T20:33:41.842Z,29.85
2022-12-09T20:36:11.660Z,28.50
2022-12-09T20:38:39.104Z,32.45
2022-12-09T20:41:11.355Z,35.78
2022-12-09T20:43:39.712Z,56.75
2022-12-09T20:46:10.495Z,68.90
2022-12-09T20:48:38.940Z,69.38
2022-12-09T20:51:12.395Z,71.60
2022-12-09T20:53:41.256Z,68.75
2022-12-09T20:56:08.693Z,71.75
2022-12-09T20:58:37.286Z,67.95
2022-12-09T21:01:08.020Z,64.43
2022-12-09T21:03:35.654Z,61.42
2022-12-09T21:06:02.869Z,65.70
2022-12-09T21:08:31.987Z,63.05
2022-12-09T21:11:11.030Z,50.90
2022-12-09T21:13:39.994Z,45.13
2022-12-09T21:16:15.754Z,48.35
2022-12-09T21:18:43.634Z,43.00
2022-12-09T21:21:10.396Z,45.85
2022-12-09T21:23:38.405Z,41.47
2022-12-09T21:26:09.898Z,36.85
2022-12-09T21:28:37.662Z,37.53
2022-12-09T21:31:13.057Z,36.78
2022-12-09T21:33:41.262Z,34.20
2022-12-09T21:36:10.761Z,37.97
2022-12-09T21:38:38.094Z,39.15
2022-12-09T21:41:10.773Z,36.58
2022-12-09T21:43:37.903Z,39.50
2022-12-09T21:46:17.828Z,42.10
2022-12-09T21:48:50.599Z,42.22
2022-12-09T21:51:19.739Z,40.72
2022-12-09T21:53:47.434Z,37.20
2022-12-09T21:56:20.652Z,36.83
2022-12-09T21:58:49.194Z,38.22
2022-12-09T22:01:19.995Z,37.67
2022-12-09T22:03:47.872Z,38.17
2022-12-09T22:06:15.792Z,39.67
2022-12-09T22:08:43.290Z,36.97
2022-12-09T22:11:13.755Z,34.60
2022-12-09T22:13:40.902Z,33.47
2022-12-09T22:16:13.052Z,32.38
2022-12-09T22:18:41.851Z,34.58
2022-12-09T22:21:30.098Z,33.90
2022-12-09T22:24:01.225Z,32.78
2022-12-09T22:26:28.637Z,32.13
2022-12-09T22:28:56.930Z,36.10
2022-12-09T22:31:32.942Z,31.20
2022-12-09T22:34:02.799Z,32.05
2022-12-09T22:36:29.982Z,36.50
2022-12-09T22:38:56.922Z,34.58
2022-12-09T22:41:26.359Z,35.55
2022-12-09T22:43:54.948Z,31.52
2022-12-09T22:46:27.881Z,32.28
2022-12-09T22:49:05.783Z,33.85
2022-12-09T22:51:35.630Z,31.75
2022-12-09T22:54:08.090Z,29.55
2022-12-09T22:56:37.291Z,28.77
2022-12-09T22:59:04.616Z,30.38
2022-12-09T23:01:35.532Z,33.88
2022-12-09T23:04:03.639Z,28.83
2022-12-09T23:06:30.912Z,29.55
2022-12-09T23:08:58.370Z,32.08
2022-12-09T23:11:27.362Z,28.48
2022-12-09T23:13:54.715Z,29.30
2022-12-09T23:16:24.440Z,30.08
2022-12-09T23:18:52.164Z,29.65
2022-12-09T23:21:31.921Z,30.38
2022-12-09T23:24:01.277Z,29.67
2022-12-09T23:26:31.462Z,28.42
2022-12-09T23:29:00.270Z,30.48
2022-12-09T23:31:30.033Z,31.92
2022-12-09T23:33:56.937Z,32.50
2022-12-09T23:36:32.160Z,31.13
2022-12-09T23:39:00.355Z,33.67
2022-12-09T23:41:27.924Z,28.65
2022-12-09T23:43:55.314Z,36.85
2022-12-09T23:46:24.612Z,29.45
2022-12-09T23:48:52.468Z,28.85
2022-12-09T23:51:26.052Z,28.40
2022-12-09T23:53:56.222Z,30.50
2022-12-09T23:56:24.400Z,28.75
2022-12-09T23:59:00.022Z,26.98
